Ana Sayfa
METAR-TAF:

METAR-TAF

Havaalanları :

Stigler, Oklahoma, Amerika Birleşik Devletleri

Enlem: 35-17-17N, Boylam: 095-05-38W, yükseklik: 183 m

Güncel hava durumu gözlemi

Rapor saat 21:15 UTC de 27 dakika önce yapıldı.
Rüzgar doğu/kuzeydoğudan 7 kt ve 13 kt'a kadar ani rüzgarlar
Sıcaklık 34°C
Nem 53%
Basınç 1025 hPa
Görüş mesafesi: 12.9 km
Açık gökyüzü

METAR: KGZL 202115Z AUTO 07007G13KT 8SM CLR 34/23 A3028 RMK AO2

Saat: 16:42 (21:42 UTC)


TAF: eksik

4.000'den fazla havaalanı için hava durumu gözlemleri ve tahminleri (METAR ve TAF raporları).

Kullanılabilir istasyonlar harita üzerinde sarı ve kırmızı noktalarla gösterilir.

İstasyonun adını görmek için fareyi noktanın üzerinde gezdirin.

Sonrasında hava gözlem ve tahminlerini görmek için tıklayın.

Haritayı değiştirmek için: yaklaştırmak için siyah artı işaretli yeşil düğmeye ve uzaklaştırmak için de eksi işaretli düğmeye hızla tıklayın; bitişik haritalar için yeşil okları kullanın.


METAR-TAF: